Terminal Aerodrome Forecast
Issued by NWS Louisville, KY

Home | Current Version | Previous Version | Text Only | Print | Product List | Glossary On
Versions: 1 2 3 4 5 6 7 8 9 10 11 12 13 14
000
FTUS43 KLMK 200522
TAFBWG
TAF
KBWG 200522Z 2006/2106 00000KT P6SM SKC
     FM200900 00000KT 6SM BR SKC
     FM201000 00000KT 4SM BR FEW045 FEW200
     FM201200 22003KT P6SM FEW040 SCT200
     FM201500 26005KT P6SM SCT050=

USA.gov is the U.S. government's official web portal to all federal, state and local government web resources and services.